sensor_id;sensor_type;location;lat;lon;timestamp;pressure;altitude;pressure_sealevel;temperature;humidity
37892;BME280;45797;47.466;9.486;2023-10-13T00:01:42;96073.34;;;21.12;42.87
37892;BME280;45797;47.466;9.486;2023-10-13T00:06:47;96076.84;;;21.13;42.86
37892;BME280;45797;47.466;9.486;2023-10-13T00:11:50;96073.22;;;21.05;43.29
37892;BME280;45797;47.466;9.486;2023-10-13T00:16:54;96076.53;;;20.91;43.54
37892;BME280;45797;47.466;9.486;2023-10-13T00:22:14;96082.19;;;20.80;44.00
37892;BME280;45797;47.466;9.486;2023-10-13T00:27:30;96086.03;;;20.69;43.93
37892;BME280;45797;47.466;9.486;2023-10-13T00:32:33;96085.19;;;20.61;43.96
37892;BME280;45797;47.466;9.486;2023-10-13T00:37:47;96075.19;;;20.46;44.41
37892;BME280;45797;47.466;9.486;2023-10-13T00:42:52;96072.34;;;20.40;44.86
37892;BME280;45797;47.466;9.486;2023-10-13T00:47:55;96068.81;;;20.31;44.89
37892;BME280;45797;47.466;9.486;2023-10-13T00:53:05;96058.66;;;20.18;45.12
37892;BME280;45797;47.466;9.486;2023-10-13T00:58:08;96065.09;;;20.08;45.25
37892;BME280;45797;47.466;9.486;2023-10-13T01:03:13;96053.47;;;20.01;45.17
37892;BME280;45797;47.466;9.486;2023-10-13T01:08:13;96042.97;;;19.91;45.61
37892;BME280;45797;47.466;9.486;2023-10-13T01:13:34;96050.38;;;19.79;45.52
37892;BME280;45797;47.466;9.486;2023-10-13T01:24:38;96068.59;;;19.58;46.07
37892;BME280;45797;47.466;9.486;2023-10-13T01:29:39;96060.38;;;19.51;45.99
37892;BME280;45797;47.466;9.486;2023-10-13T01:34:40;96049.41;;;19.46;46.20
37892;BME280;45797;47.466;9.486;2023-10-13T01:39:52;96043.06;;;19.39;46.18
37892;BME280;45797;47.466;9.486;2023-10-13T01:44:54;96044.53;;;19.33;46.46
37892;BME280;45797;47.466;9.486;2023-10-13T01:50:06;96038.34;;;19.25;46.53
37892;BME280;45797;47.466;9.486;2023-10-13T01:55:20;96031.16;;;19.17;46.50
37892;BME280;45797;47.466;9.486;2023-10-13T02:00:24;96026.31;;;19.12;46.57
37892;BME280;45797;47.466;9.486;2023-10-13T02:05:35;96034.91;;;19.06;47.07
37892;BME280;45797;47.466;9.486;2023-10-13T02:10:36;96039.03;;;19.01;47.13
37892;BME280;45797;47.466;9.486;2023-10-13T02:15:46;96047.59;;;18.95;47.24
37892;BME280;45797;47.466;9.486;2023-10-13T02:20:48;96029.50;;;18.90;47.06
37892;BME280;45797;47.466;9.486;2023-10-13T02:26:03;96018.38;;;18.87;47.12
37892;BME280;45797;47.466;9.486;2023-10-13T02:31:16;96016.66;;;18.86;47.22
37892;BME280;45797;47.466;9.486;2023-10-13T02:36:19;96012.50;;;18.83;47.25
37892;BME280;45797;47.466;9.486;2023-10-13T02:41:22;96007.38;;;18.81;47.03
37892;BME280;45797;47.466;9.486;2023-10-13T02:46:34;96013.00;;;18.78;46.82
37892;BME280;45797;47.466;9.486;2023-10-13T02:51:40;96009.97;;;18.73;47.35
37892;BME280;45797;47.466;9.486;2023-10-13T02:56:43;96021.22;;;18.67;47.22
37892;BME280;45797;47.466;9.486;2023-10-13T03:01:49;96019.13;;;18.61;47.61
37892;BME280;45797;47.466;9.486;2023-10-13T03:06:52;96020.28;;;18.59;47.41
37892;BME280;45797;47.466;9.486;2023-10-13T03:11:56;96015.44;;;18.54;47.53
37892;BME280;45797;47.466;9.486;2023-10-13T03:16:58;96013.09;;;18.51;47.92
37892;BME280;45797;47.466;9.486;2023-10-13T03:22:18;96016.34;;;18.45;47.78
37892;BME280;45797;47.466;9.486;2023-10-13T03:27:20;96015.28;;;18.38;47.84
37892;BME280;45797;47.466;9.486;2023-10-13T03:32:26;96012.28;;;18.33;47.97
37892;BME280;45797;47.466;9.486;2023-10-13T03:37:28;96012.88;;;18.26;48.15
37892;BME280;45797;47.466;9.486;2023-10-13T03:42:38;96002.91;;;18.20;48.26
37892;BME280;45797;47.466;9.486;2023-10-13T03:47:40;96003.19;;;18.17;48.03
37892;BME280;45797;47.466;9.486;2023-10-13T03:52:43;95999.03;;;18.15;47.99
37892;BME280;45797;47.466;9.486;2023-10-13T03:57:44;96003.94;;;18.10;48.33
37892;BME280;45797;47.466;9.486;2023-10-13T04:02:52;96001.91;;;18.04;48.45
37892;BME280;45797;47.466;9.486;2023-10-13T04:08:27;95995.84;;;17.93;48.83
37892;BME280;45797;47.466;9.486;2023-10-13T04:19:08;95982.75;;;17.92;49.07
37892;BME280;45797;47.466;9.486;2023-10-13T04:24:11;95966.97;;;17.90;48.94
37892;BME280;45797;47.466;9.486;2023-10-13T04:29:26;95971.22;;;17.83;48.67
37892;BME280;45797;47.466;9.486;2023-10-13T04:34:44;95980.91;;;17.75;49.29
37892;BME280;45797;47.466;9.486;2023-10-13T04:39:51;95977.59;;;17.73;49.22
37892;BME280;45797;47.466;9.486;2023-10-13T04:44:58;95974.09;;;17.72;49.13
37892;BME280;45797;47.466;9.486;2023-10-13T04:50:16;95966.28;;;17.70;48.79
37892;BME280;45797;47.466;9.486;2023-10-13T04:55:28;95961.97;;;17.69;49.03
37892;BME280;45797;47.466;9.486;2023-10-13T05:01:09;95949.31;;;17.63;49.21
37892;BME280;45797;47.466;9.486;2023-10-13T05:06:26;95941.63;;;17.60;49.27
37892;BME280;45797;47.466;9.486;2023-10-13T05:11:45;95943.91;;;17.55;49.29
37892;BME280;45797;47.466;9.486;2023-10-13T05:17:06;95943.91;;;17.55;49.69
37892;BME280;45797;47.466;9.486;2023-10-13T05:22:25;95957.00;;;17.57;48.66
37892;BME280;45797;47.466;9.486;2023-10-13T05:27:44;95952.53;;;17.57;49.12
37892;BME280;45797;47.466;9.486;2023-10-13T05:33:03;95954.22;;;17.58;48.83
37892;BME280;45797;47.466;9.486;2023-10-13T05:38:25;95961.47;;;17.56;48.91
37892;BME280;45797;47.466;9.486;2023-10-13T05:43:56;95964.44;;;17.53;49.00
37892;BME280;45797;47.466;9.486;2023-10-13T05:49:17;95958.97;;;17.55;49.04
37892;BME280;45797;47.466;9.486;2023-10-13T05:54:19;95965.13;;;17.55;48.96
37892;BME280;45797;47.466;9.486;2023-10-13T05:59:33;95966.94;;;17.55;49.44
37892;BME280;45797;47.466;9.486;2023-10-13T06:05:20;95962.06;;;17.50;49.26
37892;BME280;45797;47.466;9.486;2023-10-13T06:10:40;95960.09;;;17.52;49.38
37892;BME280;45797;47.466;9.486;2023-10-13T06:16:14;95960.09;;;17.52;49.19
37892;BME280;45797;47.466;9.486;2023-10-13T06:21:33;95966.09;;;17.54;49.11
37892;BME280;45797;47.466;9.486;2023-10-13T06:26:57;95969.75;;;17.53;49.42
37892;BME280;45797;47.466;9.486;2023-10-13T06:32:17;95968.75;;;17.54;49.38
37892;BME280;45797;47.466;9.486;2023-10-13T06:37:19;95963.16;;;17.57;49.68
37892;BME280;45797;47.466;9.486;2023-10-13T06:42:28;95961.31;;;17.58;49.41
37892;BME280;45797;47.466;9.486;2023-10-13T06:47:30;95958.38;;;17.61;49.75
37892;BME280;45797;47.466;9.486;2023-10-13T06:52:33;95964.22;;;17.64;49.24
37892;BME280;45797;47.466;9.486;2023-10-13T06:57:38;95966.88;;;17.64;49.57
37892;BME280;45797;47.466;9.486;2023-10-13T07:02:43;95967.53;;;17.66;49.23
37892;BME280;45797;47.466;9.486;2023-10-13T07:07:44;95973.53;;;17.68;49.51
37892;BME280;45797;47.466;9.486;2023-10-13T07:12:45;95977.16;;;17.67;49.03
37892;BME280;45797;47.466;9.486;2023-10-13T07:18:07;95977.16;;;17.67;49.44
37892;BME280;45797;47.466;9.486;2023-10-13T07:23:08;95976.75;;;17.72;49.94
37892;BME280;45797;47.466;9.486;2023-10-13T07:28:11;95978.25;;;17.75;49.90
37892;BME280;45797;47.466;9.486;2023-10-13T07:33:13;95979.78;;;17.77;49.61
37892;BME280;45797;47.466;9.486;2023-10-13T07:38:13;95984.75;;;17.80;49.75
37892;BME280;45797;47.466;9.486;2023-10-13T07:43:24;95982.81;;;17.82;49.92
37892;BME280;45797;47.466;9.486;2023-10-13T07:48:29;95987.66;;;17.87;49.89
37892;BME280;45797;47.466;9.486;2023-10-13T07:53:31;95994.19;;;17.92;49.88
37892;BME280;45797;47.466;9.486;2023-10-13T07:58:35;95992.38;;;17.93;50.27
37892;BME280;45797;47.466;9.486;2023-10-13T08:04:05;95988.41;;;17.97;50.18
37892;BME280;45797;47.466;9.486;2023-10-13T08:09:11;95989.63;;;18.03;50.18
37892;BME280;45797;47.466;9.486;2023-10-13T08:14:45;95991.97;;;18.06;50.37
37892;BME280;45797;47.466;9.486;2023-10-13T08:20:05;95994.03;;;18.12;50.22
37892;BME280;45797;47.466;9.486;2023-10-13T08:25:12;95990.31;;;18.22;50.58
37892;BME280;45797;47.466;9.486;2023-10-13T08:30:24;95982.88;;;18.26;50.41
37892;BME280;45797;47.466;9.486;2023-10-13T08:35:32;95985.75;;;18.33;50.30
37892;BME280;45797;47.466;9.486;2023-10-13T08:40:38;95985.16;;;18.39;50.32
37892;BME280;45797;47.466;9.486;2023-10-13T08:45:59;95975.06;;;18.42;50.49
37892;BME280;45797;47.466;9.486;2023-10-13T08:51:00;95974.72;;;18.45;50.52
37892;BME280;45797;47.466;9.486;2023-10-13T08:56:19;95968.44;;;18.46;50.67
37892;BME280;45797;47.466;9.486;2023-10-13T09:01:42;95975.94;;;18.51;50.56
37892;BME280;45797;47.466;9.486;2023-10-13T09:06:50;95968.34;;;18.56;50.90
37892;BME280;45797;47.466;9.486;2023-10-13T09:17:14;95968.97;;;18.68;50.59
37892;BME280;45797;47.466;9.486;2023-10-13T09:22:32;95958.53;;;18.74;50.36
37892;BME280;45797;47.466;9.486;2023-10-13T09:27:41;95961.56;;;18.79;50.38
37892;BME280;45797;47.466;9.486;2023-10-13T09:32:41;95964.44;;;18.86;49.99
37892;BME280;45797;47.466;9.486;2023-10-13T09:37:50;95958.31;;;18.94;50.72
37892;BME280;45797;47.466;9.486;2023-10-13T09:42:52;95960.72;;;19.05;50.40
37892;BME280;45797;47.466;9.486;2023-10-13T09:47:58;95942.84;;;19.15;50.44
37892;BME280;45797;47.466;9.486;2023-10-13T09:53:18;95936.72;;;19.23;50.72
37892;BME280;45797;47.466;9.486;2023-10-13T09:58:21;95947.91;;;19.34;50.75
37892;BME280;45797;47.466;9.486;2023-10-13T10:03:54;95941.63;;;19.44;50.58
37892;BME280;45797;47.466;9.486;2023-10-13T10:09:18;95934.03;;;19.57;50.34
37892;BME280;45797;47.466;9.486;2023-10-13T10:14:33;95929.41;;;19.67;50.34
37892;BME280;45797;47.466;9.486;2023-10-13T10:19:48;95921.63;;;19.82;50.06
37892;BME280;45797;47.466;9.486;2023-10-13T10:24:58;95911.66;;;19.92;50.11
37892;BME280;45797;47.466;9.486;2023-10-13T10:29:59;95911.16;;;20.05;50.16
37892;BME280;45797;47.466;9.486;2023-10-13T10:35:07;95898.53;;;20.15;50.08
37892;BME280;45797;47.466;9.486;2023-10-13T10:40:12;95892.84;;;20.26;50.24
37892;BME280;45797;47.466;9.486;2023-10-13T10:45:29;95887.03;;;20.39;50.02
37892;BME280;45797;47.466;9.486;2023-10-13T10:50:33;95873.41;;;20.50;49.83
37892;BME280;45797;47.466;9.486;2023-10-13T10:55:38;95876.19;;;20.65;50.07
37892;BME280;45797;47.466;9.486;2023-10-13T11:00:38;95865.84;;;20.78;49.64
37892;BME280;45797;47.466;9.486;2023-10-13T11:05:50;95856.28;;;20.92;49.68
37892;BME280;45797;47.466;9.486;2023-10-13T11:10:52;95853.56;;;21.08;49.54
37892;BME280;45797;47.466;9.486;2023-10-13T11:15:54;95847.84;;;21.19;49.34
37892;BME280;45797;47.466;9.486;2023-10-13T11:20:59;95848.28;;;21.31;48.97
37892;BME280;45797;47.466;9.486;2023-10-13T11:26:05;95839.09;;;21.42;48.87
37892;BME280;45797;47.466;9.486;2023-10-13T11:31:17;95836.03;;;21.53;48.56
37892;BME280;45797;47.466;9.486;2023-10-13T11:36:33;95825.41;;;21.67;48.49
37892;BME280;45797;47.466;9.486;2023-10-13T11:41:42;95822.59;;;21.84;47.91
37892;BME280;45797;47.466;9.486;2023-10-13T11:46:50;95810.97;;;22.00;47.79
37892;BME280;45797;47.466;9.486;2023-10-13T11:52:13;95803.19;;;22.13;47.73
37892;BME280;45797;47.466;9.486;2023-10-13T11:57:25;95798.88;;;22.27;47.32
37892;BME280;45797;47.466;9.486;2023-10-13T12:02:26;95784.72;;;22.41;47.37
37892;BME280;45797;47.466;9.486;2023-10-13T12:07:27;95769.78;;;22.61;46.81
37892;BME280;45797;47.466;9.486;2023-10-13T12:12:53;95766.34;;;22.82;46.39
37892;BME280;45797;47.466;9.486;2023-10-13T12:17:55;95750.97;;;22.99;45.69
37892;BME280;45797;47.466;9.486;2023-10-13T12:22:59;95755.47;;;23.13;45.85
37892;BME280;45797;47.466;9.486;2023-10-13T12:28:19;95745.47;;;23.22;45.64
37892;BME280;45797;47.466;9.486;2023-10-13T12:33:21;95743.94;;;23.34;45.73
37892;BME280;45797;47.466;9.486;2023-10-13T12:38:25;95736.63;;;23.43;45.67
37892;BME280;45797;47.466;9.486;2023-10-13T12:43:45;95736.84;;;23.48;45.70
37892;BME280;45797;47.466;9.486;2023-10-13T12:49:04;95726.78;;;23.50;45.81
37892;BME280;45797;47.466;9.486;2023-10-13T12:54:22;95728.50;;;23.57;45.67
37892;BME280;45797;47.466;9.486;2023-10-13T12:59:24;95716.25;;;23.63;45.25
37892;BME280;45797;47.466;9.486;2023-10-13T13:04:26;95711.78;;;23.70;45.28
37892;BME280;45797;47.466;9.486;2023-10-13T13:09:34;95703.22;;;23.81;44.48
37892;BME280;45797;47.466;9.486;2023-10-13T13:14:39;95695.91;;;23.97;44.53
37892;BME280;45797;47.466;9.486;2023-10-13T13:19:44;95696.78;;;24.04;44.36
37892;BME280;45797;47.466;9.486;2023-10-13T13:24:50;95687.63;;;24.19;44.37
37892;BME280;45797;47.466;9.486;2023-10-13T13:30:29;95676.78;;;24.34;44.16
37892;BME280;45797;47.466;9.486;2023-10-13T13:35:41;95664.91;;;24.50;43.92
37892;BME280;45797;47.466;9.486;2023-10-13T13:41:19;95657.75;;;24.64;44.00
37892;BME280;45797;47.466;9.486;2023-10-13T13:46:34;95657.59;;;24.78;43.91
37892;BME280;45797;47.466;9.486;2023-10-13T13:51:46;95646.72;;;24.93;43.49
37892;BME280;45797;47.466;9.486;2023-10-13T13:56:57;95639.72;;;25.05;43.79
37892;BME280;45797;47.466;9.486;2023-10-13T14:02:02;95627.78;;;25.15;43.51
37892;BME280;45797;47.466;9.486;2023-10-13T14:07:24;95637.06;;;25.25;43.23
37892;BME280;45797;47.466;9.486;2023-10-13T14:12:31;95625.53;;;25.25;43.37
37892;BME280;45797;47.466;9.486;2023-10-13T14:17:48;95622.19;;;25.29;43.02
37892;BME280;45797;47.466;9.486;2023-10-13T14:22:55;95619.75;;;25.41;43.68
37892;BME280;45797;47.466;9.486;2023-10-13T14:27:57;95607.78;;;25.50;43.79
37892;BME280;45797;47.466;9.486;2023-10-13T14:33:00;95604.03;;;25.58;43.69
37892;BME280;45797;47.466;9.486;2023-10-13T14:38:02;95594.72;;;25.67;43.70
37892;BME280;45797;47.466;9.486;2023-10-13T14:43:12;95587.94;;;25.71;43.52
37892;BME280;45797;47.466;9.486;2023-10-13T14:48:13;95590.81;;;25.83;43.99
37892;BME280;45797;47.466;9.486;2023-10-13T14:53:34;95584.63;;;25.82;44.00
37892;BME280;45797;47.466;9.486;2023-10-13T14:58:36;95586.84;;;25.92;44.14
37892;BME280;45797;47.466;9.486;2023-10-13T15:03:41;95579.63;;;25.99;43.86
37892;BME280;45797;47.466;9.486;2023-10-13T15:08:42;95582.91;;;26.01;44.09
37892;BME280;45797;47.466;9.486;2023-10-13T15:13:46;95575.47;;;26.03;44.00
37892;BME280;45797;47.466;9.486;2023-10-13T15:18:51;95572.56;;;26.05;43.97
37892;BME280;45797;47.466;9.486;2023-10-13T15:23:54;95559.75;;;26.07;43.54
37892;BME280;45797;47.466;9.486;2023-10-13T15:28:59;95559.34;;;26.03;43.58
37892;BME280;45797;47.466;9.486;2023-10-13T15:34:17;95558.97;;;26.00;43.38
37892;BME280;45797;47.466;9.486;2023-10-13T15:39:18;95561.84;;;25.98;43.21
37892;BME280;45797;47.466;9.486;2023-10-13T15:44:34;95553.22;;;25.89;42.99
37892;BME280;45797;47.466;9.486;2023-10-13T15:49:35;95556.50;;;25.85;42.84
37892;BME280;45797;47.466;9.486;2023-10-13T15:54:36;95552.84;;;25.73;42.95
37892;BME280;45797;47.466;9.486;2023-10-13T15:59:38;95549.34;;;25.59;43.27
37892;BME280;45797;47.466;9.486;2023-10-13T16:04:38;95547.72;;;25.45;43.62
37892;BME280;45797;47.466;9.486;2023-10-13T16:09:38;95549.59;;;25.31;43.41
37892;BME280;45797;47.466;9.486;2023-10-13T16:14:39;95550.22;;;25.13;43.76
37892;BME280;45797;47.466;9.486;2023-10-13T16:19:46;95547.53;;;24.93;43.93
37892;BME280;45797;47.466;9.486;2023-10-13T16:24:57;95549.13;;;24.68;44.09
37892;BME280;45797;47.466;9.486;2023-10-13T16:29:57;95545.00;;;24.45;44.10
37892;BME280;45797;47.466;9.486;2023-10-13T16:34:58;95545.53;;;24.28;44.22
37892;BME280;45797;47.466;9.486;2023-10-13T16:39:59;95545.06;;;24.11;44.05
37892;BME280;45797;47.466;9.486;2023-10-13T16:45:06;95546.44;;;23.93;44.18
37892;BME280;45797;47.466;9.486;2023-10-13T16:50:21;95539.75;;;23.76;43.95
37892;BME280;45797;47.466;9.486;2023-10-13T16:55:22;95560.06;;;23.64;44.23
37892;BME280;45797;47.466;9.486;2023-10-13T17:00:23;95555.63;;;23.50;44.49
37892;BME280;45797;47.466;9.486;2023-10-13T17:05:27;95553.31;;;23.40;44.34
37892;BME280;45797;47.466;9.486;2023-10-13T17:10:32;95558.16;;;23.30;44.21
37892;BME280;45797;47.466;9.486;2023-10-13T17:15:36;95558.56;;;23.27;43.72
37892;BME280;45797;47.466;9.486;2023-10-13T17:20:39;95558.97;;;23.24;43.70
37892;BME280;45797;47.466;9.486;2023-10-13T17:25:40;95567.75;;;23.18;43.34
37892;BME280;45797;47.466;9.486;2023-10-13T17:30:52;95565.69;;;23.13;43.77
37892;BME280;45797;47.466;9.486;2023-10-13T17:35:54;95567.31;;;23.14;43.52
37892;BME280;45797;47.466;9.486;2023-10-13T17:40:55;95563.38;;;23.10;43.24
37892;BME280;45797;47.466;9.486;2023-10-13T17:45:55;95560.66;;;23.03;43.28
37892;BME280;45797;47.466;9.486;2023-10-13T17:50:56;95561.03;;;23.00;43.53
37892;BME280;45797;47.466;9.486;2023-10-13T17:55:56;95563.91;;;22.99;43.03
37892;BME280;45797;47.466;9.486;2023-10-13T18:01:05;95558.97;;;22.96;42.85
37892;BME280;45797;47.466;9.486;2023-10-13T18:06:31;95546.97;;;22.92;42.80
37892;BME280;45797;47.466;9.486;2023-10-13T18:11:32;95542.09;;;22.95;42.48
37892;BME280;45797;47.466;9.486;2023-10-13T18:16:36;95548.91;;;22.98;42.41
37892;BME280;45797;47.466;9.486;2023-10-13T18:21:37;95538.00;;;22.99;42.24
37892;BME280;45797;47.466;9.486;2023-10-13T18:26:37;95533.50;;;23.00;41.98
37892;BME280;45797;47.466;9.486;2023-10-13T18:31:47;95532.88;;;22.98;41.66
37892;BME280;45797;47.466;9.486;2023-10-13T18:36:48;95529.78;;;23.01;41.79
37892;BME280;45797;47.466;9.486;2023-10-13T18:41:51;95536.56;;;22.97;41.59
37892;BME280;45797;47.466;9.486;2023-10-13T18:46:52;95526.50;;;22.99;41.51
37892;BME280;45797;47.466;9.486;2023-10-13T18:51:54;95533.06;;;22.96;41.07
37892;BME280;45797;47.466;9.486;2023-10-13T18:56:58;95530.31;;;22.90;41.35
37892;BME280;45797;47.466;9.486;2023-10-13T19:02:00;95527.44;;;22.85;41.24
37892;BME280;45797;47.466;9.486;2023-10-13T19:07:01;95522.19;;;22.76;41.72
37892;BME280;45797;47.466;9.486;2023-10-13T19:12:03;95534.06;;;22.74;41.50
37892;BME280;45797;47.466;9.486;2023-10-13T19:17:05;95525.81;;;22.69;41.70
37892;BME280;45797;47.466;9.486;2023-10-13T19:22:06;95535.16;;;22.58;41.69
37892;BME280;45797;47.466;9.486;2023-10-13T19:27:14;95528.03;;;22.44;42.13
37892;BME280;45797;47.466;9.486;2023-10-13T19:32:18;95530.38;;;22.32;41.78
37892;BME280;45797;47.466;9.486;2023-10-13T19:37:20;95524.72;;;22.20;42.62
37892;BME280;45797;47.466;9.486;2023-10-13T19:42:21;95508.56;;;22.07;42.95
37892;BME280;45797;47.466;9.486;2023-10-13T19:47:21;95511.06;;;21.94;43.04
37892;BME280;45797;47.466;9.486;2023-10-13T19:52:21;95512.56;;;21.82;42.82
37892;BME280;45797;47.466;9.486;2023-10-13T19:57:24;95516.34;;;21.73;43.26
37892;BME280;45797;47.466;9.486;2023-10-13T20:02:41;95517.66;;;21.62;43.33
37892;BME280;45797;47.466;9.486;2023-10-13T20:08:12;95526.94;;;21.51;43.33
37892;BME280;45797;47.466;9.486;2023-10-13T20:13:20;95526.22;;;21.43;43.75
37892;BME280;45797;47.466;9.486;2023-10-13T20:18:30;95529.16;;;21.33;44.06
37892;BME280;45797;47.466;9.486;2023-10-13T20:23:31;95519.22;;;21.27;43.63
37892;BME280;45797;47.466;9.486;2023-10-13T20:28:35;95513.41;;;21.23;43.66
37892;BME280;45797;47.466;9.486;2023-10-13T20:33:37;95504.31;;;21.18;44.02
37892;BME280;45797;47.466;9.486;2023-10-13T20:38:44;95499.69;;;21.11;43.80
37892;BME280;45797;47.466;9.486;2023-10-13T20:44:02;95514.59;;;21.06;44.03
37892;BME280;45797;47.466;9.486;2023-10-13T20:49:05;95521.56;;;21.07;44.20
37892;BME280;45797;47.466;9.486;2023-10-13T20:54:05;95522.09;;;21.02;44.09
37892;BME280;45797;47.466;9.486;2023-10-13T20:59:18;95517.53;;;20.96;44.09
37892;BME280;45797;47.466;9.486;2023-10-13T21:04:30;95508.59;;;20.89;44.07
37892;BME280;45797;47.466;9.486;2023-10-13T21:09:35;95509.31;;;20.83;44.53
37892;BME280;45797;47.466;9.486;2023-10-13T21:14:37;95512.22;;;20.73;44.62
37892;BME280;45797;47.466;9.486;2023-10-13T21:19:38;95505.16;;;20.66;44.73
37892;BME280;45797;47.466;9.486;2023-10-13T21:24:40;95507.16;;;20.64;44.67
37892;BME280;45797;47.466;9.486;2023-10-13T21:29:43;95500.06;;;20.56;44.60
37892;BME280;45797;47.466;9.486;2023-10-13T21:34:44;95492.63;;;20.51;45.12
37892;BME280;45797;47.466;9.486;2023-10-13T21:39:44;95489.00;;;20.44;45.01
37892;BME280;45797;47.466;9.486;2023-10-13T21:44:44;95483.38;;;20.39;45.14
37892;BME280;45797;47.466;9.486;2023-10-13T21:49:55;95473.09;;;20.36;45.10
37892;BME280;45797;47.466;9.486;2023-10-13T21:54:58;95466.09;;;20.35;45.09
37892;BME280;45797;47.466;9.486;2023-10-13T22:00:08;95477.13;;;20.32;45.05
37892;BME280;45797;47.466;9.486;2023-10-13T22:05:22;95486.47;;;20.28;44.75
37892;BME280;45797;47.466;9.486;2023-10-13T22:10:24;95502.78;;;20.25;45.38
37892;BME280;45797;47.466;9.486;2023-10-13T22:15:33;95505.84;;;20.14;45.07
37892;BME280;45797;47.466;9.486;2023-10-13T22:20:35;95504.88;;;20.07;45.23
37892;BME280;45797;47.466;9.486;2023-10-13T22:25:35;95501.94;;;20.02;45.61
37892;BME280;45797;47.466;9.486;2023-10-13T22:30:56;95491.81;;;19.97;45.51
37892;BME280;45797;47.466;9.486;2023-10-13T22:35:58;95503.28;;;19.97;45.35
37892;BME280;45797;47.466;9.486;2023-10-13T22:41:00;95489.69;;;19.92;45.60
37892;BME280;45797;47.466;9.486;2023-10-13T22:46:05;95492.69;;;19.89;45.64
37892;BME280;45797;47.466;9.486;2023-10-13T22:51:10;95505.34;;;19.87;45.90
37892;BME280;45797;47.466;9.486;2023-10-13T22:56:13;95512.06;;;19.75;46.50
37892;BME280;45797;47.466;9.486;2023-10-13T23:01:22;95506.78;;;19.67;45.74
37892;BME280;45797;47.466;9.486;2023-10-13T23:06:38;95500.34;;;19.61;46.45
37892;BME280;45797;47.466;9.486;2023-10-13T23:11:39;95507.31;;;19.62;46.52
37892;BME280;45797;47.466;9.486;2023-10-13T23:16:40;95505.66;;;19.61;46.46
37892;BME280;45797;47.466;9.486;2023-10-13T23:21:58;95504.50;;;19.56;46.22
37892;BME280;45797;47.466;9.486;2023-10-13T23:26:59;95509.47;;;19.51;46.65
37892;BME280;45797;47.466;9.486;2023-10-13T23:32:00;95515.16;;;19.48;46.81
37892;BME280;45797;47.466;9.486;2023-10-13T23:37:02;95516.31;;;19.45;47.18
37892;BME280;45797;47.466;9.486;2023-10-13T23:42:10;95499.06;;;19.41;47.05
37892;BME280;45797;47.466;9.486;2023-10-13T23:47:22;95509.19;;;19.37;47.77
37892;BME280;45797;47.466;9.486;2023-10-13T23:52:27;95510.56;;;19.33;47.13
37892;BME280;45797;47.466;9.486;2023-10-13T23:57:33;95531.47;;;19.28;47.62
